Time;durP1;ratioP1;P1;durP2;ratioP2;P2;SDS_P1;SDS_P2;PMS_P1;PMS_P2;Temp;Humidity;BMP_temperature;BMP_pressure;BME280_temperature;BME280_humidity;BME280_pressure;Samples;Min_cycle;Max_cycle;Signal;HPM_P1;HPM_P2
2023/10/29 00:00:30;;;;;;;9.70;6.63;;;;;;;;;;5033898;28;20281;-76
2023/10/29 00:02:55;;;;;;;11.57;8.43;;;;;;;;;;5025062;28;20216;-75
2023/10/29 00:05:21;;;;;;;14.35;7.75;;;;;;;;;;5027729;28;20213;-75
2023/10/29 00:07:47;;;;;;;9.07;6.68;;;;;;;;;;5022334;28;20194;-74
2023/10/29 00:10:12;;;;;;;12.65;7.28;;;;;;;;;;5029538;28;20240;-75
2023/10/29 00:12:38;;;;;;;9.02;4.15;;;;;;;;;;5022921;28;20193;-73
2023/10/29 00:15:05;;;;;;;7.97;3.67;;;;;;;;;;5045669;28;20216;-73
2023/10/29 00:17:30;;;;;;;5.05;2.80;;;;;;;;;;5028681;28;20191;-73
2023/10/29 00:19:55;;;;;;;4.03;2.17;;;;;;;;;;5019547;28;20198;-73
2023/10/29 00:22:21;;;;;;;4.55;2.30;;;;;;;;;;5028021;28;20182;-73
2023/10/29 00:24:46;;;;;;;5.82;2.80;;;;;;;;;;5022731;28;20605;-72
2023/10/29 00:27:12;;;;;;;4.53;2.45;;;;;;;;;;5019551;28;20190;-73
2023/10/29 00:29:38;;;;;;;3.35;2.60;;;;;;;;;;5031460;28;20320;-73
2023/10/29 00:32:03;;;;;;;4.80;2.83;;;;;;;;;;5022733;28;20682;-74
2023/10/29 00:34:29;;;;;;;5.20;2.55;;;;;;;;;;5022653;28;20502;-73
2023/10/29 00:36:54;;;;;;;4.45;2.80;;;;;;;;;;5037691;28;20182;-72
2023/10/29 00:39:20;;;;;;;4.40;2.47;;;;;;;;;;5016667;28;20622;-72
2023/10/29 00:41:45;;;;;;;4.45;2.95;;;;;;;;;;5019023;28;20191;-73
2023/10/29 00:44:10;;;;;;;6.22;2.65;;;;;;;;;;5012032;28;20219;-73
2023/10/29 00:46:39;;;;;;;5.47;3.70;;;;;;;;;;5020599;28;20194;-73
2023/10/29 00:49:05;;;;;;;5.82;2.90;;;;;;;;;;5027068;28;20182;-72
2023/10/29 00:51:30;;;;;;;6.18;3.00;;;;;;;;;;5025025;28;20190;-72
2023/10/29 00:53:56;;;;;;;4.05;2.30;;;;;;;;;;5027133;28;20189;-72
2023/10/29 00:56:21;;;;;;;4.45;2.70;;;;;;;;;;5023412;28;20273;-71
2023/10/29 00:58:47;;;;;;;5.85;2.13;;;;;;;;;;5024943;28;20273;-73
2023/10/29 01:01:12;;;;;;;5.00;2.42;;;;;;;;;;5030296;28;20198;-72
2023/10/29 01:03:38;;;;;;;6.07;2.22;;;;;;;;;;5027568;28;20279;-71
2023/10/29 01:06:03;;;;;;;4.05;2.30;;;;;;;;;;5024155;28;20197;-71
2023/10/29 01:08:29;;;;;;;3.60;2.00;;;;;;;;;;5015706;28;20198;-71
2023/10/29 01:10:55;;;;;;;4.72;2.38;;;;;;;;;;5015068;28;20198;-71
2023/10/29 01:13:20;;;;;;;3.78;2.00;;;;;;;;;;5043709;28;21044;-71
2023/10/29 01:15:46;;;;;;;7.10;2.50;;;;;;;;;;5028443;28;20577;-71
2023/10/29 01:18:11;;;;;;;4.15;2.50;;;;;;;;;;5030985;28;20537;-70
2023/10/29 01:20:38;;;;;;;3.42;1.95;;;;;;;;;;5013962;28;20191;-71
2023/10/29 01:23:03;;;;;;;4.68;2.58;;;;;;;;;;5030751;28;20194;-70
2023/10/29 01:25:29;;;;;;;6.43;2.10;;;;;;;;;;5019132;28;20221;-71
2023/10/29 01:27:54;;;;;;;5.18;1.77;;;;;;;;;;5026559;28;20190;-71
2023/10/29 01:30:20;;;;;;;5.68;2.00;;;;;;;;;;5020292;28;20265;-72
2023/10/29 01:32:45;;;;;;;3.65;2.13;;;;;;;;;;5024023;28;20252;-70
2023/10/29 01:35:11;;;;;;;4.00;2.05;;;;;;;;;;5027230;28;20190;-70
2023/10/29 01:37:36;;;;;;;3.17;1.77;;;;;;;;;;5028429;28;20186;-71
2023/10/29 01:40:02;;;;;;;4.85;1.88;;;;;;;;;;5031370;28;20194;-72
2023/10/29 01:42:27;;;;;;;4.25;2.28;;;;;;;;;;5034492;28;20266;-71
2023/10/29 01:44:52;;;;;;;7.63;2.00;;;;;;;;;;5024447;28;20319;-71
2023/10/29 01:47:18;;;;;;;4.22;2.17;;;;;;;;;;5027351;28;20221;-71
2023/10/29 01:49:43;;;;;;;4.70;1.90;;;;;;;;;;5030980;28;20321;-72
2023/10/29 01:52:08;;;;;;;5.47;2.13;;;;;;;;;;5030143;28;20213;-71
2023/10/29 01:54:34;;;;;;;3.85;2.00;;;;;;;;;;5044917;28;20202;-71
2023/10/29 01:57:00;;;;;;;4.20;1.90;;;;;;;;;;5030856;28;20567;-71
2023/10/29 01:59:25;;;;;;;4.03;2.10;;;;;;;;;;5020547;28;20201;-71
2023/10/29 02:01:51;;;;;;;5.07;1.63;;;;;;;;;;5026224;28;20209;-71
2023/10/29 02:04:16;;;;;;;3.97;2.22;;;;;;;;;;5017098;28;20207;-70
2023/10/29 02:06:41;;;;;;;7.80;2.03;;;;;;;;;;5029024;28;20209;-71
2023/10/29 02:09:12;;;;;;;7.57;1.77;;;;;;;;;;5031176;28;20281;-70
2023/10/29 02:11:38;;;;;;;4.82;1.83;;;;;;;;;;5028272;28;20186;-70
2023/10/29 02:14:04;;;;;;;3.05;1.70;;;;;;;;;;5025136;28;20226;-72
2023/10/29 02:16:30;;;;;;;5.85;2.08;;;;;;;;;;5019752;28;20222;-70
2023/10/29 02:18:55;;;;;;;5.18;1.70;;;;;;;;;;5031641;28;20204;-70
2023/10/29 02:21:22;;;;;;;5.18;1.55;;;;;;;;;;5025920;28;20273;-68
2023/10/29 02:23:48;;;;;;;4.15;1.60;;;;;;;;;;5026054;28;20210;-69
2023/10/29 02:26:13;;;;;;;3.30;1.70;;;;;;;;;;5024037;28;20269;-69
2023/10/29 02:28:39;;;;;;;5.15;2.10;;;;;;;;;;5029847;28;20206;-69
2023/10/29 02:31:04;;;;;;;4.18;1.45;;;;;;;;;;5030437;28;20528;-69
2023/10/29 02:33:30;;;;;;;4.93;2.30;;;;;;;;;;5009832;28;20201;-74
2023/10/29 02:35:56;;;;;;;4.10;2.40;;;;;;;;;;5023496;28;20186;-73
2023/10/29 02:38:22;;;;;;;6.05;1.75;;;;;;;;;;5028140;28;20201;-69
2023/10/29 02:40:47;;;;;;;4.97;1.60;;;;;;;;;;5031098;28;20260;-70
2023/10/29 02:43:13;;;;;;;4.82;1.70;;;;;;;;;;5031981;28;20194;-68
2023/10/29 02:45:39;;;;;;;5.22;1.90;;;;;;;;;;5029417;28;20241;-71
2023/10/29 02:48:05;;;;;;;3.25;1.45;;;;;;;;;;5018475;28;20320;-70
2023/10/29 02:50:30;;;;;;;4.43;1.55;;;;;;;;;;5029443;28;20261;-70
2023/10/29 02:52:56;;;;;;;4.57;1.58;;;;;;;;;;5027371;28;20543;-70
2023/10/29 02:55:21;;;;;;;5.88;1.40;;;;;;;;;;5025615;28;20182;-69
2023/10/29 02:57:46;;;;;;;3.90;1.52;;;;;;;;;;5030122;28;20231;-72
2023/10/29 03:00:12;;;;;;;6.50;1.60;;;;;;;;;;5030279;28;20198;-70
2023/10/29 03:02:38;;;;;;;3.10;1.15;;;;;;;;;;5024427;28;20191;-70
2023/10/29 03:05:04;;;;;;;2.90;1.17;;;;;;;;;;5018150;28;20248;-71
2023/10/29 03:07:30;;;;;;;3.10;1.38;;;;;;;;;;5028693;28;20194;-70
2023/10/29 03:09:56;;;;;;;4.82;1.73;;;;;;;;;;5028621;28;20240;-71
2023/10/29 03:12:21;;;;;;;3.35;1.02;;;;;;;;;;5022480;28;20190;-70
2023/10/29 03:14:47;;;;;;;2.38;1.10;;;;;;;;;;5025482;28;20218;-70
2023/10/29 03:17:12;;;;;;;4.55;1.33;;;;;;;;;;5033356;28;20233;-71
2023/10/29 03:19:38;;;;;;;3.88;1.30;;;;;;;;;;5027835;28;20250;-69
2023/10/29 03:22:04;;;;;;;2.40;1.20;;;;;;;;;;5027350;28;20194;-72
2023/10/29 03:24:30;;;;;;;5.28;1.42;;;;;;;;;;5021267;28;20214;-71
2023/10/29 03:26:55;;;;;;;3.42;1.65;;;;;;;;;;5020655;28;20201;-71
2023/10/29 03:29:21;;;;;;;5.32;1.88;;;;;;;;;;5026486;28;20213;-71
2023/10/29 03:31:47;;;;;;;3.83;1.10;;;;;;;;;;5025267;28;20675;-70
2023/10/29 03:34:13;;;;;;;2.60;1.00;;;;;;;;;;5028783;28;20186;-70
2023/10/29 03:36:38;;;;;;;2.97;0.90;;;;;;;;;;5029952;28;20277;-74
2023/10/29 03:39:05;;;;;;;3.20;0.88;;;;;;;;;;5020020;28;20240;-71
2023/10/29 03:41:31;;;;;;;2.75;1.08;;;;;;;;;;5025821;28;20202;-69
2023/10/29 03:43:57;;;;;;;4.72;1.40;;;;;;;;;;5025187;28;20240;-72
2023/10/29 03:46:22;;;;;;;2.08;0.82;;;;;;;;;;5019631;28;20615;-69
2023/10/29 03:48:48;;;;;;;2.88;0.85;;;;;;;;;;5013651;28;20581;-72
2023/10/29 03:51:14;;;;;;;1.73;0.88;;;;;;;;;;5024097;28;20190;-69
2023/10/29 03:53:39;;;;;;;2.55;0.60;;;;;;;;;;5023632;28;20547;-69
2023/10/29 03:56:05;;;;;;;5.30;0.90;;;;;;;;;;5019027;28;20524;-71
2023/10/29 03:58:31;;;;;;;3.65;0.80;;;;;;;;;;5015698;28;20565;-70
2023/10/29 04:00:56;;;;;;;4.07;1.02;;;;;;;;;;5028686;28;20190;-69
2023/10/29 04:03:22;;;;;;;1.42;0.65;;;;;;;;;;5029137;28;20269;-73
2023/10/29 04:05:48;;;;;;;2.63;0.77;;;;;;;;;;5027826;28;20221;-70
2023/10/29 04:08:13;;;;;;;4.47;1.02;;;;;;;;;;5011293;28;20543;-72
2023/10/29 04:10:39;;;;;;;3.47;0.80;;;;;;;;;;5032311;28;20289;-73
2023/10/29 04:13:04;;;;;;;2.28;0.70;;;;;;;;;;5034140;28;20197;-71
2023/10/29 04:15:30;;;;;;;1.35;0.75;;;;;;;;;;5029238;28;20238;-70
2023/10/29 04:17:55;;;;;;;2.38;0.70;;;;;;;;;;5029404;28;20193;-73
2023/10/29 04:20:20;;;;;;;3.40;0.75;;;;;;;;;;5015048;28;20558;-73
2023/10/29 04:22:46;;;;;;;4.15;0.80;;;;;;;;;;5017332;28;20273;-70
2023/10/29 04:25:11;;;;;;;1.55;0.70;;;;;;;;;;5022655;28;20674;-69
2023/10/29 04:27:37;;;;;;;3.25;0.93;;;;;;;;;;5019646;28;20264;-71
2023/10/29 04:30:02;;;;;;;3.03;0.90;;;;;;;;;;5015082;28;20191;-71
2023/10/29 04:32:28;;;;;;;1.75;0.82;;;;;;;;;;5024717;28;20182;-72
2023/10/29 04:34:53;;;;;;;3.13;0.77;;;;;;;;;;5027610;28;20182;-72
2023/10/29 04:37:18;;;;;;;3.00;0.90;;;;;;;;;;5022559;28;20195;-71
2023/10/29 04:39:46;;;;;;;3.00;0.50;;;;;;;;;;5027735;28;20259;-73
2023/10/29 04:42:11;;;;;;;1.73;0.80;;;;;;;;;;5029303;28;20605;-74
2023/10/29 04:44:36;;;;;;;5.72;0.88;;;;;;;;;;5020068;28;20221;-70
2023/10/29 04:47:03;;;;;;;1.85;0.57;;;;;;;;;;5022284;28;20539;-71
2023/10/29 04:49:29;;;;;;;2.45;0.75;;;;;;;;;;5028479;28;20190;-73
2023/10/29 04:51:55;;;;;;;3.22;1.23;;;;;;;;;;5025303;28;20194;-71
2023/10/29 04:54:20;;;;;;;1.85;0.60;;;;;;;;;;5022958;28;20197;-74
2023/10/29 04:56:46;;;;;;;4.38;0.80;;;;;;;;;;5031159;28;20182;-75
2023/10/29 04:59:11;;;;;;;2.45;0.60;;;;;;;;;;5026335;28;20194;-72
2023/10/29 05:01:37;;;;;;;3.80;0.60;;;;;;;;;;5022393;28;20268;-70
2023/10/29 05:04:02;;;;;;;3.85;0.70;;;;;;;;;;5020578;28;20297;-70
2023/10/29 05:06:28;;;;;;;3.03;0.68;;;;;;;;;;5030600;28;20642;-69
2023/10/29 05:08:54;;;;;;;5.53;0.60;;;;;;;;;;5018240;28;20198;-69
2023/10/29 05:11:20;;;;;;;2.20;1.10;;;;;;;;;;5016832;28;20611;-69
2023/10/29 05:13:45;;;;;;;2.67;0.88;;;;;;;;;;5016465;28;20206;-72
2023/10/29 05:16:11;;;;;;;2.08;0.80;;;;;;;;;;5026556;28;20637;-72
2023/10/29 05:18:37;;;;;;;1.27;0.68;;;;;;;;;;5023976;28;20182;-69
2023/10/29 05:21:03;;;;;;;3.03;0.55;;;;;;;;;;5020062;28;20226;-72
2023/10/29 05:23:29;;;;;;;2.85;0.90;;;;;;;;;;5016849;28;20399;-69
2023/10/29 05:25:55;;;;;;;2.83;0.52;;;;;;;;;;5026528;28;20368;-70
2023/10/29 05:28:22;;;;;;;3.63;0.60;;;;;;;;;;5030713;28;20661;-70
2023/10/29 05:30:48;;;;;;;2.10;0.70;;;;;;;;;;5022262;28;20249;-70
2023/10/29 05:33:13;;;;;;;3.60;0.50;;;;;;;;;;5025275;28;20201;-71
2023/10/29 05:35:38;;;;;;;4.68;0.68;;;;;;;;;;5030218;28;20662;-69
2023/10/29 05:38:04;;;;;;;3.20;0.77;;;;;;;;;;5025669;28;20202;-70
2023/10/29 05:40:30;;;;;;;2.22;0.60;;;;;;;;;;5029910;28;20194;-69
2023/10/29 05:42:55;;;;;;;1.42;0.75;;;;;;;;;;5024342;28;20212;-72
2023/10/29 05:45:20;;;;;;;2.97;0.57;;;;;;;;;;5022941;28;20206;-72
2023/10/29 05:47:46;;;;;;;3.58;0.70;;;;;;;;;;5033452;28;20289;-70
2023/10/29 05:50:11;;;;;;;1.25;0.60;;;;;;;;;;5021709;28;20194;-71
2023/10/29 05:52:37;;;;;;;3.47;0.70;;;;;;;;;;5026638;28;20198;-69
2023/10/29 05:55:03;;;;;;;2.78;0.88;;;;;;;;;;5024291;28;20669;-70
2023/10/29 05:57:29;;;;;;;5.78;0.68;;;;;;;;;;5028692;28;20217;-69
2023/10/29 05:59:56;;;;;;;2.63;0.70;;;;;;;;;;5036924;28;20213;-70
2023/10/29 06:02:21;;;;;;;2.92;0.73;;;;;;;;;;5027481;28;20189;-70
2023/10/29 06:04:47;;;;;;;1.67;0.52;;;;;;;;;;5019827;28;20210;-71
2023/10/29 06:07:13;;;;;;;4.10;1.15;;;;;;;;;;5025899;28;20194;-70
2023/10/29 06:09:39;;;;;;;2.40;0.52;;;;;;;;;;5025454;28;20186;-70
2023/10/29 06:12:06;;;;;;;5.70;0.90;;;;;;;;;;5024400;28;20203;-70
2023/10/29 06:14:32;;;;;;;1.95;1.00;;;;;;;;;;5027213;28;20570;-71
2023/10/29 06:16:57;;;;;;;1.98;0.65;;;;;;;;;;5028315;28;20301;-72
2023/10/29 06:19:23;;;;;;;2.10;0.82;;;;;;;;;;5045261;28;20760;-70
2023/10/29 06:21:49;;;;;;;2.08;0.60;;;;;;;;;;5026090;28;20186;-71
2023/10/29 06:24:14;;;;;;;5.90;0.63;;;;;;;;;;5036975;28;20278;-69
2023/10/29 06:26:40;;;;;;;2.78;0.57;;;;;;;;;;5026530;28;20216;-73
2023/10/29 06:29:06;;;;;;;3.40;0.70;;;;;;;;;;5022848;28;20193;-73
2023/10/29 06:31:33;;;;;;;2.58;0.90;;;;;;;;;;5022115;28;20190;-71
2023/10/29 06:33:59;;;;;;;4.68;0.70;;;;;;;;;;5027446;28;20245;-70
2023/10/29 06:36:25;;;;;;;4.55;0.82;;;;;;;;;;5025584;28;20198;-70
2023/10/29 06:38:50;;;;;;;2.55;1.00;;;;;;;;;;5032861;28;20719;-71
2023/10/29 06:41:16;;;;;;;5.47;1.40;;;;;;;;;;5019242;28;20273;-73
2023/10/29 06:43:41;;;;;;;4.43;0.90;;;;;;;;;;5029523;28;20557;-73
2023/10/29 06:46:07;;;;;;;3.20;0.73;;;;;;;;;;5023100;28;20183;-70
2023/10/29 06:48:32;;;;;;;3.30;0.95;;;;;;;;;;5018583;28;20194;-74
2023/10/29 06:50:57;;;;;;;4.57;0.65;;;;;;;;;;5024856;28;20209;-70
2023/10/29 06:53:23;;;;;;;4.72;0.60;;;;;;;;;;5030393;28;20273;-70
2023/10/29 06:55:48;;;;;;;2.13;0.43;;;;;;;;;;5026887;28;20779;-72
2023/10/29 06:58:14;;;;;;;4.18;0.50;;;;;;;;;;5024920;28;20199;-71
2023/10/29 07:00:40;;;;;;;0.75;0.30;;;;;;;;;;5030063;28;20201;-74
2023/10/29 07:03:05;;;;;;;1.25;0.40;;;;;;;;;;5025688;28;20194;-71
2023/10/29 07:05:31;;;;;;;1.85;0.30;;;;;;;;;;5018636;28;20532;-71
2023/10/29 07:07:56;;;;;;;1.33;0.40;;;;;;;;;;5022716;28;20202;-73
2023/10/29 07:10:21;;;;;;;1.98;0.40;;;;;;;;;;5023477;28;20194;-74
2023/10/29 07:12:47;;;;;;;1.50;0.32;;;;;;;;;;5026101;28;20214;-73
2023/10/29 07:15:13;;;;;;;1.17;0.40;;;;;;;;;;5028265;28;21020;-73
2023/10/29 07:17:38;;;;;;;1.88;0.40;;;;;;;;;;5002728;28;20247;-73
2023/10/29 07:20:04;;;;;;;2.10;0.50;;;;;;;;;;5023262;28;20197;-71
2023/10/29 07:22:30;;;;;;;2.28;0.52;;;;;;;;;;5026442;28;20269;-70
2023/10/29 07:24:56;;;;;;;3.78;0.40;;;;;;;;;;5023046;28;20234;-69
2023/10/29 07:27:21;;;;;;;1.95;0.40;;;;;;;;;;5026103;28;20228;-69
2023/10/29 07:29:46;;;;;;;1.67;0.30;;;;;;;;;;5026169;28;20340;-70
2023/10/29 07:32:12;;;;;;;3.72;0.60;;;;;;;;;;5027591;28;20633;-73
2023/10/29 07:34:38;;;;;;;3.92;0.63;;;;;;;;;;5024691;28;20193;-73
2023/10/29 07:37:03;;;;;;;5.88;0.60;;;;;;;;;;5027430;28;20202;-71
2023/10/29 07:39:29;;;;;;;2.72;0.40;;;;;;;;;;5019605;28;20205;-70
2023/10/29 07:41:54;;;;;;;2.60;0.77;;;;;;;;;;5024774;28;20228;-72
2023/10/29 07:44:20;;;;;;;4.72;0.73;;;;;;;;;;5025901;28;20210;-73
2023/10/29 07:46:45;;;;;;;2.33;0.50;;;;;;;;;;5032373;28;20661;-71
2023/10/29 07:49:10;;;;;;;4.97;0.77;;;;;;;;;;5029698;28;20257;-71
2023/10/29 07:51:36;;;;;;;3.80;0.57;;;;;;;;;;5023598;28;20194;-69
2023/10/29 07:54:01;;;;;;;2.97;0.55;;;;;;;;;;5025775;28;20191;-70
2023/10/29 07:56:27;;;;;;;6.72;1.20;;;;;;;;;;5030519;28;20203;-71
2023/10/29 07:58:52;;;;;;;2.90;0.50;;;;;;;;;;5028201;28;20419;-69
2023/10/29 08:01:18;;;;;;;6.72;0.85;;;;;;;;;;5023309;28;20552;-71
2023/10/29 08:03:45;;;;;;;4.20;0.60;;;;;;;;;;5041386;28;20273;-73
2023/10/29 08:06:11;;;;;;;6.05;0.68;;;;;;;;;;5018501;28;20198;-70
2023/10/29 08:08:37;;;;;;;3.90;1.02;;;;;;;;;;5027111;28;20197;-71
2023/10/29 08:11:03;;;;;;;4.57;1.00;;;;;;;;;;5036419;28;20197;-71
2023/10/29 08:13:28;;;;;;;3.97;0.70;;;;;;;;;;5025069;28;20606;-73
2023/10/29 08:15:54;;;;;;;3.88;0.70;;;;;;;;;;5023740;28;20274;-71
2023/10/29 08:18:20;;;;;;;6.22;0.82;;;;;;;;;;5027885;28;20202;-70
2023/10/29 08:20:45;;;;;;;5.75;0.65;;;;;;;;;;5030749;28;20263;-72
2023/10/29 08:23:11;;;;;;;5.28;0.60;;;;;;;;;;5023316;28;20557;-71
2023/10/29 08:25:39;;;;;;;4.63;1.20;;;;;;;;;;5025873;28;20206;-73
2023/10/29 08:28:08;;;;;;;6.88;0.90;;;;;;;;;;5011006;28;20204;-72
2023/10/29 08:30:33;;;;;;;5.00;0.90;;;;;;;;;;5021550;28;20186;-70
2023/10/29 08:32:59;;;;;;;8.75;1.17;;;;;;;;;;5020440;28;20186;-71
2023/10/29 08:35:24;;;;;;;5.13;1.00;;;;;;;;;;5023485;28;20179;-70
2023/10/29 08:37:50;;;;;;;4.03;0.70;;;;;;;;;;5021937;28;20293;-70
2023/10/29 08:40:15;;;;;;;5.68;0.75;;;;;;;;;;5026393;28;20241;-74
2023/10/29 08:42:42;;;;;;;6.75;1.27;;;;;;;;;;5027264;28;20279;-71
2023/10/29 08:45:08;;;;;;;4.80;0.80;;;;;;;;;;5026341;28;20208;-74
2023/10/29 08:47:33;;;;;;;5.13;0.75;;;;;;;;;;5026847;28;20601;-70
2023/10/29 08:49:59;;;;;;;5.30;1.00;;;;;;;;;;5023597;28;20190;-71
2023/10/29 08:52:24;;;;;;;4.25;1.00;;;;;;;;;;5015154;28;20732;-70
2023/10/29 08:54:50;;;;;;;8.25;1.00;;;;;;;;;;5026026;28;20222;-71
2023/10/29 08:57:16;;;;;;;4.63;1.13;;;;;;;;;;5025417;28;20534;-73
2023/10/29 08:59:41;;;;;;;5.03;1.08;;;;;;;;;;5024918;28;20697;-72
2023/10/29 09:02:08;;;;;;;6.13;1.02;;;;;;;;;;5025517;28;20235;-71
2023/10/29 09:04:39;;;;;;;8.52;1.30;;;;;;;;;;5027377;28;20290;-71
2023/10/29 09:07:06;;;;;;;6.45;1.35;;;;;;;;;;5027380;28;20249;-72
2023/10/29 09:09:31;;;;;;;6.60;1.08;;;;;;;;;;5036736;28;20274;-70
2023/10/29 09:11:57;;;;;;;7.43;1.23;;;;;;;;;;5019509;28;20282;-69
2023/10/29 09:14:23;;;;;;;6.60;1.17;;;;;;;;;;5023871;28;20210;-72
2023/10/29 09:16:48;;;;;;;3.85;0.77;;;;;;;;;;5019348;28;20249;-70
2023/10/29 09:19:15;;;;;;;12.30;1.15;;;;;;;;;;5024752;28;20256;-70
2023/10/29 09:21:40;;;;;;;8.27;1.27;;;;;;;;;;5019216;28;20229;-68
2023/10/29 09:24:07;;;;;;;7.57;1.92;;;;;;;;;;5021524;28;20233;-69
2023/10/29 09:26:32;;;;;;;5.28;0.88;;;;;;;;;;5032641;28;20196;-70
2023/10/29 09:29:00;;;;;;;7.78;1.40;;;;;;;;;;5031363;28;20260;-70
2023/10/29 09:31:25;;;;;;;6.60;0.93;;;;;;;;;;5024250;28;20646;-73
2023/10/29 09:33:51;;;;;;;5.25;1.00;;;;;;;;;;5032137;28;20185;-69
2023/10/29 09:36:18;;;;;;;10.70;1.00;;;;;;;;;;5024133;28;20267;-70
2023/10/29 09:38:43;;;;;;;7.43;0.90;;;;;;;;;;5018840;28;20623;-69
2023/10/29 09:41:09;;;;;;;6.85;1.60;;;;;;;;;;5029199;28;20259;-69
2023/10/29 09:43:40;;;;;;;7.13;1.00;;;;;;;;;;5024067;28;20194;-71
2023/10/29 09:46:06;;;;;;;5.43;1.20;;;;;;;;;;5021743;28;20259;-71
2023/10/29 09:48:33;;;;;;;7.28;1.20;;;;;;;;;;5028594;28;20729;-70
2023/10/29 09:51:03;;;;;;;7.20;1.17;;;;;;;;;;5019980;28;20259;-70
2023/10/29 09:53:31;;;;;;;7.90;1.40;;;;;;;;;;5022552;28;20191;-70
2023/10/29 09:55:58;;;;;;;6.28;1.05;;;;;;;;;;5015466;28;20578;-70
2023/10/29 09:58:26;;;;;;;9.45;1.20;;;;;;;;;;5028379;28;20269;-69
2023/10/29 10:00:52;;;;;;;7.47;1.35;;;;;;;;;;5020326;28;20284;-72
2023/10/29 10:03:18;;;;;;;7.05;1.35;;;;;;;;;;5026627;28;20214;-69
2023/10/29 10:05:45;;;;;;;5.85;1.08;;;;;;;;;;5019560;28;20206;-69
2023/10/29 10:08:11;;;;;;;7.60;1.65;;;;;;;;;;5022590;28;20198;-71
2023/10/29 10:10:41;;;;;;;6.95;1.15;;;;;;;;;;5018350;28;20195;-70
2023/10/29 10:13:07;;;;;;;7.97;1.38;;;;;;;;;;5034174;28;20698;-69
2023/10/29 10:15:33;;;;;;;9.35;1.55;;;;;;;;;;5032962;28;20222;-69
2023/10/29 10:18:00;;;;;;;5.68;1.30;;;;;;;;;;5023335;28;20496;-69
2023/10/29 10:20:27;;;;;;;8.38;1.35;;;;;;;;;;5033226;28;20266;-70
2023/10/29 10:23:00;;;;;;;4.55;1.10;;;;;;;;;;5026929;28;20205;-73
2023/10/29 10:25:27;;;;;;;6.20;1.17;;;;;;;;;;5022263;28;20213;-70
2023/10/29 10:27:54;;;;;;;5.95;0.88;;;;;;;;;;5023360;28;20627;-69
2023/10/29 10:30:31;;;;;;;9.18;1.10;;;;;;;;;;5040140;28;20194;-72
2023/10/29 10:33:11;;;;;;;8.52;1.38;;;;;;;;;;5030975;28;20211;-70
2023/10/29 10:35:40;;;;;;;6.55;1.35;;;;;;;;;;5033507;28;20182;-73
2023/10/29 10:38:06;;;;;;;6.57;0.80;;;;;;;;;;5031792;28;20335;-71
2023/10/29 10:40:31;;;;;;;4.00;1.10;;;;;;;;;;5031229;28;20194;-69
2023/10/29 10:42:57;;;;;;;6.55;1.00;;;;;;;;;;5034804;28;20190;-71
2023/10/29 10:45:28;;;;;;;9.82;1.15;;;;;;;;;;5022839;28;20288;-69
2023/10/29 10:47:59;;;;;;;6.10;0.80;;;;;;;;;;5031808;28;20284;-69
2023/10/29 10:50:25;;;;;;;5.82;1.13;;;;;;;;;;5025960;28;20195;-73
2023/10/29 10:52:51;;;;;;;6.53;1.05;;;;;;;;;;5037399;28;20208;-69
2023/10/29 10:55:18;;;;;;;7.18;1.27;;;;;;;;;;5031782;28;20193;-69
2023/10/29 10:57:44;;;;;;;6.05;1.45;;;;;;;;;;5030401;28;20652;-72
2023/10/29 11:00:13;;;;;;;7.95;1.10;;;;;;;;;;5036555;28;20186;-72
2023/10/29 11:02:40;;;;;;;6.68;1.05;;;;;;;;;;5030293;28;20239;-68
2023/10/29 11:05:08;;;;;;;4.90;1.00;;;;;;;;;;5037539;28;20217;-68
2023/10/29 11:07:34;;;;;;;7.90;1.20;;;;;;;;;;5030215;28;20612;-71
2023/10/29 11:10:02;;;;;;;5.35;1.13;;;;;;;;;;5031364;28;20206;-70
2023/10/29 11:12:36;;;;;;;4.10;0.90;;;;;;;;;;5030402;28;20241;-72
2023/10/29 11:15:14;;;;;;;11.43;1.42;;;;;;;;;;5031095;28;20198;-70
2023/10/29 11:17:56;;;;;;;6.10;0.98;;;;;;;;;;5017811;28;20209;-68
2023/10/29 11:20:50;;;;;;;6.07;1.38;;;;;;;;;;5038493;28;20220;-69
2023/10/29 11:23:21;;;;;;;4.55;1.40;;;;;;;;;;5023806;28;20267;-74
2023/10/29 11:25:46;;;;;;;5.47;0.93;;;;;;;;;;5025832;28;20600;-69
2023/10/29 11:28:24;;;;;;;5.55;0.95;;;;;;;;;;5026520;28;20210;-71
2023/10/29 11:31:15;;;;;;;5.75;1.00;;;;;;;;;;5022298;28;20197;-72
2023/10/29 11:33:43;;;;;;;6.90;1.10;;;;;;;;;;5026925;28;20198;-70
2023/10/29 11:36:27;;;;;;;5.97;1.25;;;;;;;;;;5031514;28;20216;-68
2023/10/29 11:38:53;;;;;;;10.23;2.15;;;;;;;;;;5043536;28;20230;-69
2023/10/29 11:41:31;;;;;;;5.57;1.33;;;;;;;;;;5027386;28;20220;-68
2023/10/29 11:44:29;;;;;;;8.25;1.08;;;;;;;;;;5014333;28;20272;-68
2023/10/29 11:46:55;;;;;;;9.00;1.20;;;;;;;;;;5024029;28;20382;-71
2023/10/29 11:49:20;;;;;;;5.90;1.05;;;;;;;;;;5025086;28;20596;-71
2023/10/29 11:51:54;;;;;;;8.27;1.33;;;;;;;;;;5019780;28;20565;-71
2023/10/29 11:54:20;;;;;;;7.18;1.00;;;;;;;;;;5022388;28;20200;-71
2023/10/29 11:56:47;;;;;;;7.10;1.08;;;;;;;;;;5021133;28;20273;-72
2023/10/29 11:59:13;;;;;;;5.65;1.00;;;;;;;;;;5022012;28;20232;-70
2023/10/29 12:01:38;;;;;;;13.07;1.80;;;;;;;;;;5026853;28;20210;-69
2023/10/29 12:04:04;;;;;;;7.88;1.27;;;;;;;;;;5022081;28;20301;-71
2023/10/29 12:06:37;;;;;;;9.50;1.25;;;;;;;;;;5025604;28;20267;-69
2023/10/29 12:09:16;;;;;;;8.25;1.42;;;;;;;;;;5028456;28;20535;-69
2023/10/29 12:11:42;;;;;;;7.38;1.23;;;;;;;;;;5020576;28;20186;-71
2023/10/29 12:14:07;;;;;;;8.50;1.35;;;;;;;;;;5020691;28;20201;-70
2023/10/29 12:16:34;;;;;;;9.43;1.13;;;;;;;;;;5024988;28;20283;-69
2023/10/29 12:18:59;;;;;;;5.80;1.40;;;;;;;;;;5016952;28;20197;-73
2023/10/29 12:21:24;;;;;;;6.25;1.40;;;;;;;;;;5025101;28;20190;-68
2023/10/29 12:23:51;;;;;;;6.80;1.20;;;;;;;;;;5024444;28;20197;-70
2023/10/29 12:26:18;;;;;;;6.43;1.20;;;;;;;;;;5029258;28;20285;-71
2023/10/29 12:28:44;;;;;;;6.20;1.13;;;;;;;;;;5022850;28;20193;-69
2023/10/29 12:31:24;;;;;;;7.13;1.10;;;;;;;;;;5021491;28;20893;-70
2023/10/29 12:33:57;;;;;;;9.32;1.45;;;;;;;;;;5034776;28;20194;-70
2023/10/29 12:36:23;;;;;;;5.63;1.20;;;;;;;;;;5026592;28;20195;-70
2023/10/29 12:38:49;;;;;;;8.95;1.30;;;;;;;;;;5024594;28;20206;-69
2023/10/29 12:41:16;;;;;;;7.03;1.33;;;;;;;;;;5024117;28;20584;-69
2023/10/29 12:43:42;;;;;;;10.18;1.38;;;;;;;;;;5020914;28;20269;-70
2023/10/29 12:46:13;;;;;;;6.97;1.35;;;;;;;;;;5025811;28;20314;-71
2023/10/29 12:49:00;;;;;;;7.35;1.05;;;;;;;;;;5026997;28;20210;-70
2023/10/29 12:51:32;;;;;;;5.90;1.45;;;;;;;;;;5031772;28;20205;-73
2023/10/29 12:54:19;;;;;;;6.82;1.23;;;;;;;;;;5027733;28;20189;-73
2023/10/29 12:56:52;;;;;;;11.10;1.40;;;;;;;;;;5042853;28;20194;-70
2023/10/29 12:59:20;;;;;;;10.68;1.35;;;;;;;;;;5020791;28;20183;-71
2023/10/29 13:01:56;;;;;;;9.73;1.42;;;;;;;;;;5020995;28;20182;-72
2023/10/29 13:04:23;;;;;;;9.23;1.42;;;;;;;;;;5019028;28;20208;-71
2023/10/29 13:06:50;;;;;;;8.10;1.90;;;;;;;;;;5019078;28;20265;-71
2023/10/29 13:09:20;;;;;;;6.05;1.17;;;;;;;;;;5016385;28;20727;-70
2023/10/29 13:11:46;;;;;;;6.03;1.20;;;;;;;;;;5019109;28;20320;-70
2023/10/29 13:14:12;;;;;;;10.75;1.10;;;;;;;;;;5024644;28;20181;-70
2023/10/29 13:16:37;;;;;;;8.23;1.70;;;;;;;;;;5017975;28;20233;-71
2023/10/29 13:19:02;;;;;;;9.05;1.90;;;;;;;;;;5022784;28;20625;-73
2023/10/29 13:21:28;;;;;;;10.05;1.80;;;;;;;;;;5017447;28;20194;-72
2023/10/29 13:23:53;;;;;;;9.38;1.67;;;;;;;;;;5018209;28;20269;-69
2023/10/29 13:26:19;;;;;;;9.30;1.50;;;;;;;;;;5017159;28;20264;-70
2023/10/29 13:28:45;;;;;;;5.55;1.45;;;;;;;;;;5016704;28;20514;-72
2023/10/29 13:31:10;;;;;;;7.72;1.35;;;;;;;;;;5024990;28;20653;-70
2023/10/29 13:33:36;;;;;;;5.20;1.20;;;;;;;;;;5020775;28;20240;-69
2023/10/29 13:36:02;;;;;;;6.07;1.02;;;;;;;;;;5023933;28;20313;-72
2023/10/29 13:38:28;;;;;;;9.02;1.35;;;;;;;;;;5016245;28;20332;-68
2023/10/29 13:40:53;;;;;;;4.65;1.05;;;;;;;;;;5028414;28;20646;-71
2023/10/29 13:43:19;;;;;;;6.43;1.10;;;;;;;;;;5027411;28;20201;-70
2023/10/29 13:46:05;;;;;;;8.82;1.58;;;;;;;;;;5028851;28;20214;-69
2023/10/29 13:48:31;;;;;;;5.57;0.90;;;;;;;;;;5028394;28;20684;-71
2023/10/29 13:51:01;;;;;;;6.85;1.15;;;;;;;;;;5030952;28;20217;-69
2023/10/29 13:53:27;;;;;;;6.90;1.85;;;;;;;;;;5027510;28;20218;-69
2023/10/29 13:55:53;;;;;;;6.55;1.38;;;;;;;;;;5031551;28;20584;-71
2023/10/29 13:58:19;;;;;;;7.90;1.23;;;;;;;;;;5028317;28;20196;-70
2023/10/29 14:00:44;;;;;;;7.75;1.58;;;;;;;;;;5029185;28;20202;-73
2023/10/29 14:03:10;;;;;;;8.10;1.23;;;;;;;;;;5026600;28;20906;-69
2023/10/29 14:05:36;;;;;;;7.03;1.05;;;;;;;;;;5026913;28;20245;-71
2023/10/29 14:08:01;;;;;;;9.48;1.65;;;;;;;;;;5032860;28;20194;-68
2023/10/29 14:10:26;;;;;;;8.18;1.05;;;;;;;;;;5030947;28;20544;-72
2023/10/29 14:12:52;;;;;;;5.60;1.33;;;;;;;;;;5030331;28;20185;-72
2023/10/29 14:15:17;;;;;;;10.48;1.52;;;;;;;;;;5028892;28;20221;-68
2023/10/29 14:17:43;;;;;;;8.25;1.25;;;;;;;;;;5025347;28;20571;-69
2023/10/29 14:20:09;;;;;;;4.55;1.00;;;;;;;;;;5026123;28;20188;-73
2023/10/29 14:22:34;;;;;;;6.00;1.05;;;;;;;;;;5020881;28;20194;-69
2023/10/29 14:25:04;;;;;;;5.82;1.00;;;;;;;;;;5027843;28;20210;-68
2023/10/29 14:27:30;;;;;;;4.78;0.98;;;;;;;;;;5021685;28;20214;-68
2023/10/29 14:29:56;;;;;;;4.35;0.90;;;;;;;;;;5025537;28;20209;-69
2023/10/29 14:32:22;;;;;;;9.20;1.38;;;;;;;;;;5023009;28;20191;-68
2023/10/29 14:34:47;;;;;;;4.10;1.10;;;;;;;;;;5025224;28;20255;-68
2023/10/29 14:37:13;;;;;;;3.97;0.93;;;;;;;;;;5026041;28;20488;-69
2023/10/29 14:39:39;;;;;;;6.97;1.10;;;;;;;;;;5031697;28;20190;-70